sensor_id;sensor_type;location;lat;lon;timestamp;temperature;humidity
8709;DHT22;4391;48.678;9.280;2023-07-31T00:01:20;15.40;99.90
8709;DHT22;4391;48.678;9.280;2023-07-31T00:03:47;15.50;1.00
8709;DHT22;4391;48.678;9.280;2023-07-31T00:06:14;15.60;99.90
8709;DHT22;4391;48.678;9.280;2023-07-31T00:08:41;15.70;99.90
8709;DHT22;4391;48.678;9.280;2023-07-31T00:11:07;15.80;47.80
8709;DHT22;4391;48.678;9.280;2023-07-31T00:13:34;15.80;99.00
8709;DHT22;4391;48.678;9.280;2023-07-31T00:16:03;15.70;99.90
8709;DHT22;4391;48.678;9.280;2023-07-31T00:18:29;15.60;99.90
8709;DHT22;4391;48.678;9.280;2023-07-31T00:20:56;15.60;1.00
8709;DHT22;4391;48.678;9.280;2023-07-31T00:23:23;15.40;99.90
8709;DHT22;4391;48.678;9.280;2023-07-31T00:25:50;15.30;99.90
8709;DHT22;4391;48.678;9.280;2023-07-31T00:28:16;15.10;1.00
8709;DHT22;4391;48.678;9.280;2023-07-31T00:30:45;14.90;22.20
8709;DHT22;4391;48.678;9.280;2023-07-31T00:33:14;14.70;99.90
8709;DHT22;4391;48.678;9.280;2023-07-31T00:35:40;14.50;1.00
8709;DHT22;4391;48.678;9.280;2023-07-31T00:38:07;14.40;1.00
8709;DHT22;4391;48.678;9.280;2023-07-31T00:40:35;14.20;1.00
8709;DHT22;4391;48.678;9.280;2023-07-31T00:43:02;14.10;1.00
8709;DHT22;4391;48.678;9.280;2023-07-31T00:45:30;14.10;1.00
8709;DHT22;4391;48.678;9.280;2023-07-31T00:47:57;14.20;1.00
8709;DHT22;4391;48.678;9.280;2023-07-31T00:50:26;14.40;99.90
8709;DHT22;4391;48.678;9.280;2023-07-31T00:52:53;14.60;32.00
8709;DHT22;4391;48.678;9.280;2023-07-31T00:55:20;14.90;40.60
8709;DHT22;4391;48.678;9.280;2023-07-31T00:57:48;15.00;1.00
8709;DHT22;4391;48.678;9.280;2023-07-31T01:00:16;15.00;99.90
8709;DHT22;4391;48.678;9.280;2023-07-31T01:02:43;15.00;99.90
8709;DHT22;4391;48.678;9.280;2023-07-31T01:05:10;15.00;99.90
8709;DHT22;4391;48.678;9.280;2023-07-31T01:07:44;15.00;99.90
8709;DHT22;4391;48.678;9.280;2023-07-31T01:10:18;15.00;1.00
8709;DHT22;4391;48.678;9.280;2023-07-31T01:12:48;14.90;83.30
8709;DHT22;4391;48.678;9.280;2023-07-31T01:15:14;14.80;99.90
8709;DHT22;4391;48.678;9.280;2023-07-31T01:17:43;14.80;99.90
8709;DHT22;4391;48.678;9.280;2023-07-31T01:20:12;14.90;6.00
8709;DHT22;4391;48.678;9.280;2023-07-31T01:22:54;15.00;99.90
8709;DHT22;4391;48.678;9.280;2023-07-31T01:28:25;15.00;99.90
8709;DHT22;4391;48.678;9.280;2023-07-31T01:30:55;15.00;1.00
8709;DHT22;4391;48.678;9.280;2023-07-31T01:33:25;15.10;99.90
8709;DHT22;4391;48.678;9.280;2023-07-31T01:35:52;15.00;99.90
8709;DHT22;4391;48.678;9.280;2023-07-31T01:38:21;14.90;99.90
8709;DHT22;4391;48.678;9.280;2023-07-31T01:40:51;14.80;99.90
8709;DHT22;4391;48.678;9.280;2023-07-31T01:43:20;14.70;1.00
8709;DHT22;4391;48.678;9.280;2023-07-31T01:45:47;14.70;99.90
8709;DHT22;4391;48.678;9.280;2023-07-31T01:48:13;14.50;99.90
8709;DHT22;4391;48.678;9.280;2023-07-31T01:50:40;14.40;1.00
8709;DHT22;4391;48.678;9.280;2023-07-31T01:53:07;14.20;1.00
8709;DHT22;4391;48.678;9.280;2023-07-31T01:55:34;14.10;1.00
8709;DHT22;4391;48.678;9.280;2023-07-31T01:58:01;13.90;1.00
8709;DHT22;4391;48.678;9.280;2023-07-31T02:00:29;13.80;1.00
8709;DHT22;4391;48.678;9.280;2023-07-31T02:02:56;13.60;1.00
8709;DHT22;4391;48.678;9.280;2023-07-31T02:05:23;13.50;1.00
8709;DHT22;4391;48.678;9.280;2023-07-31T02:07:50;13.40;13.00
8709;DHT22;4391;48.678;9.280;2023-07-31T02:10:16;13.30;24.10
8709;DHT22;4391;48.678;9.280;2023-07-31T02:12:43;13.40;1.00
8709;DHT22;4391;48.678;9.280;2023-07-31T02:15:10;13.40;1.00
8709;DHT22;4391;48.678;9.280;2023-07-31T02:17:38;13.40;1.00
8709;DHT22;4391;48.678;9.280;2023-07-31T02:20:06;13.40;1.00
8709;DHT22;4391;48.678;9.280;2023-07-31T02:22:33;13.40;2.70
8709;DHT22;4391;48.678;9.280;2023-07-31T02:25:00;13.30;20.60
8709;DHT22;4391;48.678;9.280;2023-07-31T02:27:27;13.30;23.50
8709;DHT22;4391;48.678;9.280;2023-07-31T02:29:54;13.20;20.10
8709;DHT22;4391;48.678;9.280;2023-07-31T02:32:21;13.10;56.90
8709;DHT22;4391;48.678;9.280;2023-07-31T02:34:49;13.00;71.60
8709;DHT22;4391;48.678;9.280;2023-07-31T02:37:16;12.90;84.40
8709;DHT22;4391;48.678;9.280;2023-07-31T02:39:43;12.90;93.90
8709;DHT22;4391;48.678;9.280;2023-07-31T02:42:10;12.80;99.90
8709;DHT22;4391;48.678;9.280;2023-07-31T02:44:37;12.70;99.90
8709;DHT22;4391;48.678;9.280;2023-07-31T02:47:04;12.60;99.90
8709;DHT22;4391;48.678;9.280;2023-07-31T02:49:30;12.50;99.90
8709;DHT22;4391;48.678;9.280;2023-07-31T02:51:59;12.50;99.90
8709;DHT22;4391;48.678;9.280;2023-07-31T02:54:25;12.50;99.90
8709;DHT22;4391;48.678;9.280;2023-07-31T02:56:52;12.40;99.90
8709;DHT22;4391;48.678;9.280;2023-07-31T02:59:20;12.30;99.90
8709;DHT22;4391;48.678;9.280;2023-07-31T03:01:47;12.30;99.90
8709;DHT22;4391;48.678;9.280;2023-07-31T03:04:13;12.20;99.90
8709;DHT22;4391;48.678;9.280;2023-07-31T03:06:40;12.20;99.90
8709;DHT22;4391;48.678;9.280;2023-07-31T03:09:08;12.30;99.90
8709;DHT22;4391;48.678;9.280;2023-07-31T03:11:35;12.30;99.90
8709;DHT22;4391;48.678;9.280;2023-07-31T03:14:02;12.30;99.90
8709;DHT22;4391;48.678;9.280;2023-07-31T03:16:29;12.30;99.90
8709;DHT22;4391;48.678;9.280;2023-07-31T03:18:56;12.20;99.90
8709;DHT22;4391;48.678;9.280;2023-07-31T03:21:23;12.20;99.90
8709;DHT22;4391;48.678;9.280;2023-07-31T03:23:50;12.20;99.90
8709;DHT22;4391;48.678;9.280;2023-07-31T03:26:18;12.10;99.90
8709;DHT22;4391;48.678;9.280;2023-07-31T03:28:45;12.10;99.90
8709;DHT22;4391;48.678;9.280;2023-07-31T03:31:11;12.10;99.90
8709;DHT22;4391;48.678;9.280;2023-07-31T03:33:38;12.10;99.90
8709;DHT22;4391;48.678;9.280;2023-07-31T03:36:05;12.20;99.90
8709;DHT22;4391;48.678;9.280;2023-07-31T03:38:33;12.30;99.90
8709;DHT22;4391;48.678;9.280;2023-07-31T03:41:00;12.40;99.90
8709;DHT22;4391;48.678;9.280;2023-07-31T03:43:29;12.50;93.20
8709;DHT22;4391;48.678;9.280;2023-07-31T03:45:56;12.50;88.20
8709;DHT22;4391;48.678;9.280;2023-07-31T03:48:23;12.60;94.30
8709;DHT22;4391;48.678;9.280;2023-07-31T03:50:49;12.50;99.90
8709;DHT22;4391;48.678;9.280;2023-07-31T03:53:16;12.40;99.90
8709;DHT22;4391;48.678;9.280;2023-07-31T03:55:43;12.30;99.90
8709;DHT22;4391;48.678;9.280;2023-07-31T03:58:10;12.20;99.90
8709;DHT22;4391;48.678;9.280;2023-07-31T04:00:40;12.20;99.90
8709;DHT22;4391;48.678;9.280;2023-07-31T04:03:07;12.20;99.90
8709;DHT22;4391;48.678;9.280;2023-07-31T04:05:38;12.30;99.90
8709;DHT22;4391;48.678;9.280;2023-07-31T04:08:05;12.40;99.90
8709;DHT22;4391;48.678;9.280;2023-07-31T04:10:32;12.50;99.90
8709;DHT22;4391;48.678;9.280;2023-07-31T04:12:59;12.60;93.60
8709;DHT22;4391;48.678;9.280;2023-07-31T04:15:26;12.60;91.70
8709;DHT22;4391;48.678;9.280;2023-07-31T04:17:54;12.70;86.00
8709;DHT22;4391;48.678;9.280;2023-07-31T04:20:21;12.80;70.50
8709;DHT22;4391;48.678;9.280;2023-07-31T04:22:48;13.00;52.30
8709;DHT22;4391;48.678;9.280;2023-07-31T04:25:15;13.00;46.80
8709;DHT22;4391;48.678;9.280;2023-07-31T04:27:41;13.10;39.20
8709;DHT22;4391;48.678;9.280;2023-07-31T04:30:09;13.10;33.10
8709;DHT22;4391;48.678;9.280;2023-07-31T04:32:35;13.20;31.70
8709;DHT22;4391;48.678;9.280;2023-07-31T04:35:04;13.20;23.80
8709;DHT22;4391;48.678;9.280;2023-07-31T04:37:31;13.30;20.70
8709;DHT22;4391;48.678;9.280;2023-07-31T04:39:58;13.30;1.00
8709;DHT22;4391;48.678;9.280;2023-07-31T04:42:25;13.50;1.00
8709;DHT22;4391;48.678;9.280;2023-07-31T04:44:52;13.60;1.00
8709;DHT22;4391;48.678;9.280;2023-07-31T04:47:19;13.60;1.00
8709;DHT22;4391;48.678;9.280;2023-07-31T04:49:46;13.70;1.00
8709;DHT22;4391;48.678;9.280;2023-07-31T04:52:15;13.70;1.00
8709;DHT22;4391;48.678;9.280;2023-07-31T04:54:41;13.80;1.00
8709;DHT22;4391;48.678;9.280;2023-07-31T04:57:08;13.90;1.00
8709;DHT22;4391;48.678;9.280;2023-07-31T05:02:03;14.10;1.00
8709;DHT22;4391;48.678;9.280;2023-07-31T05:04:30;14.10;1.00
8709;DHT22;4391;48.678;9.280;2023-07-31T05:06:57;14.20;1.00
8709;DHT22;4391;48.678;9.280;2023-07-31T05:09:25;14.20;1.00
8709;DHT22;4391;48.678;9.280;2023-07-31T05:11:52;14.20;1.00
8709;DHT22;4391;48.678;9.280;2023-07-31T05:14:19;14.20;1.00
8709;DHT22;4391;48.678;9.280;2023-07-31T05:16:47;14.20;1.00
8709;DHT22;4391;48.678;9.280;2023-07-31T05:19:14;14.30;1.00
8709;DHT22;4391;48.678;9.280;2023-07-31T05:21:41;14.30;1.00
8709;DHT22;4391;48.678;9.280;2023-07-31T05:24:08;14.30;1.00
8709;DHT22;4391;48.678;9.280;2023-07-31T05:26:36;14.20;1.00
8709;DHT22;4391;48.678;9.280;2023-07-31T05:29:03;14.20;1.00
8709;DHT22;4391;48.678;9.280;2023-07-31T05:31:30;14.20;1.00
8709;DHT22;4391;48.678;9.280;2023-07-31T05:33:58;14.20;1.00
8709;DHT22;4391;48.678;9.280;2023-07-31T05:36:25;14.30;1.00
8709;DHT22;4391;48.678;9.280;2023-07-31T05:38:52;14.50;1.00
8709;DHT22;4391;48.678;9.280;2023-07-31T05:41:19;14.60;1.00
8709;DHT22;4391;48.678;9.280;2023-07-31T05:43:47;14.90;1.00
8709;DHT22;4391;48.678;9.280;2023-07-31T05:46:14;15.00;99.90
8709;DHT22;4391;48.678;9.280;2023-07-31T05:48:40;15.20;99.90
8709;DHT22;4391;48.678;9.280;2023-07-31T05:51:07;15.40;1.00
8709;DHT22;4391;48.678;9.280;2023-07-31T05:53:34;15.60;99.90
8709;DHT22;4391;48.678;9.280;2023-07-31T05:56:03;15.90;1.00
8709;DHT22;4391;48.678;9.280;2023-07-31T05:58:30;16.20;1.00
8709;DHT22;4391;48.678;9.280;2023-07-31T06:00:58;16.50;36.10
8709;DHT22;4391;48.678;9.280;2023-07-31T06:03:25;16.90;99.90
8709;DHT22;4391;48.678;9.280;2023-07-31T06:05:52;17.20;99.90
8709;DHT22;4391;48.678;9.280;2023-07-31T06:08:19;17.40;99.90
8709;DHT22;4391;48.678;9.280;2023-07-31T06:10:46;17.60;1.00
8709;DHT22;4391;48.678;9.280;2023-07-31T06:13:12;17.70;1.00
8709;DHT22;4391;48.678;9.280;2023-07-31T06:15:39;17.80;1.00
8709;DHT22;4391;48.678;9.280;2023-07-31T06:18:07;17.90;1.00
8709;DHT22;4391;48.678;9.280;2023-07-31T06:20:34;18.10;1.00
8709;DHT22;4391;48.678;9.280;2023-07-31T06:23:01;18.10;1.00
8709;DHT22;4391;48.678;9.280;2023-07-31T06:25:29;18.20;1.00
8709;DHT22;4391;48.678;9.280;2023-07-31T06:27:56;18.10;1.00
8709;DHT22;4391;48.678;9.280;2023-07-31T06:30:22;18.10;1.00
8709;DHT22;4391;48.678;9.280;2023-07-31T06:32:49;18.20;1.00
8709;DHT22;4391;48.678;9.280;2023-07-31T06:35:17;18.30;1.00
8709;DHT22;4391;48.678;9.280;2023-07-31T06:37:44;18.40;99.90
8709;DHT22;4391;48.678;9.280;2023-07-31T06:40:11;18.60;99.90
8709;DHT22;4391;48.678;9.280;2023-07-31T06:42:38;18.70;99.90
8709;DHT22;4391;48.678;9.280;2023-07-31T06:45:06;18.90;99.90
8709;DHT22;4391;48.678;9.280;2023-07-31T06:47:33;18.90;99.90
8709;DHT22;4391;48.678;9.280;2023-07-31T06:50:00;18.90;99.90
8709;DHT22;4391;48.678;9.280;2023-07-31T06:52:28;19.00;99.90
8709;DHT22;4391;48.678;9.280;2023-07-31T06:55:02;19.10;99.90
8709;DHT22;4391;48.678;9.280;2023-07-31T06:57:30;19.20;99.90
8709;DHT22;4391;48.678;9.280;2023-07-31T06:59:56;19.20;99.90
8709;DHT22;4391;48.678;9.280;2023-07-31T07:02:23;19.40;99.90
8709;DHT22;4391;48.678;9.280;2023-07-31T07:04:50;19.70;99.90
8709;DHT22;4391;48.678;9.280;2023-07-31T07:07:19;19.90;99.90
8709;DHT22;4391;48.678;9.280;2023-07-31T07:09:47;19.90;99.90
8709;DHT22;4391;48.678;9.280;2023-07-31T07:12:14;20.00;99.90
8709;DHT22;4391;48.678;9.280;2023-07-31T07:14:40;20.00;99.90
8709;DHT22;4391;48.678;9.280;2023-07-31T07:17:07;20.20;99.90
8709;DHT22;4391;48.678;9.280;2023-07-31T07:19:34;20.40;99.90
8709;DHT22;4391;48.678;9.280;2023-07-31T07:22:01;20.60;99.90
8709;DHT22;4391;48.678;9.280;2023-07-31T07:24:28;20.70;99.90
8709;DHT22;4391;48.678;9.280;2023-07-31T07:26:56;20.70;99.90
8709;DHT22;4391;48.678;9.280;2023-07-31T07:29:23;20.50;99.90
8709;DHT22;4391;48.678;9.280;2023-07-31T07:31:49;20.50;99.90
8709;DHT22;4391;48.678;9.280;2023-07-31T07:34:16;20.50;99.90
8709;DHT22;4391;48.678;9.280;2023-07-31T07:36:43;20.30;99.90
8709;DHT22;4391;48.678;9.280;2023-07-31T07:39:10;20.20;99.90
8709;DHT22;4391;48.678;9.280;2023-07-31T07:41:37;20.20;99.90
8709;DHT22;4391;48.678;9.280;2023-07-31T07:44:05;20.20;99.90
8709;DHT22;4391;48.678;9.280;2023-07-31T07:46:32;20.10;99.90
8709;DHT22;4391;48.678;9.280;2023-07-31T07:48:59;20.10;99.90
8709;DHT22;4391;48.678;9.280;2023-07-31T07:51:26;20.00;99.90
8709;DHT22;4391;48.678;9.280;2023-07-31T07:53:55;20.10;99.90
8709;DHT22;4391;48.678;9.280;2023-07-31T07:56:22;20.20;99.90
8709;DHT22;4391;48.678;9.280;2023-07-31T07:58:49;20.30;99.90
8709;DHT22;4391;48.678;9.280;2023-07-31T08:01:17;20.40;99.90
8709;DHT22;4391;48.678;9.280;2023-07-31T08:03:44;20.40;99.90
8709;DHT22;4391;48.678;9.280;2023-07-31T08:06:11;20.30;99.90
8709;DHT22;4391;48.678;9.280;2023-07-31T08:08:38;20.30;99.90
8709;DHT22;4391;48.678;9.280;2023-07-31T08:11:05;20.70;99.90
8709;DHT22;4391;48.678;9.280;2023-07-31T08:13:32;21.10;99.90
8709;DHT22;4391;48.678;9.280;2023-07-31T08:15:59;21.30;99.90
8709;DHT22;4391;48.678;9.280;2023-07-31T08:18:27;21.40;99.90
8709;DHT22;4391;48.678;9.280;2023-07-31T08:20:54;21.50;99.90
8709;DHT22;4391;48.678;9.280;2023-07-31T08:23:21;21.70;99.90
8709;DHT22;4391;48.678;9.280;2023-07-31T08:25:48;21.80;99.90
8709;DHT22;4391;48.678;9.280;2023-07-31T08:28:16;22.10;99.90
8709;DHT22;4391;48.678;9.280;2023-07-31T08:30:43;22.10;99.90
8709;DHT22;4391;48.678;9.280;2023-07-31T08:33:10;22.10;99.90
8709;DHT22;4391;48.678;9.280;2023-07-31T08:35:38;22.00;99.90
8709;DHT22;4391;48.678;9.280;2023-07-31T08:38:05;22.00;99.90
8709;DHT22;4391;48.678;9.280;2023-07-31T08:40:32;22.10;99.90
8709;DHT22;4391;48.678;9.280;2023-07-31T08:43:02;22.20;99.90
8709;DHT22;4391;48.678;9.280;2023-07-31T08:45:36;22.20;99.90
8709;DHT22;4391;48.678;9.280;2023-07-31T08:48:10;22.30;99.90
8709;DHT22;4391;48.678;9.280;2023-07-31T08:50:39;22.60;99.90
8709;DHT22;4391;48.678;9.280;2023-07-31T08:53:07;22.50;99.90
8709;DHT22;4391;48.678;9.280;2023-07-31T08:55:34;22.80;99.90
8709;DHT22;4391;48.678;9.280;2023-07-31T08:58:04;22.90;99.90
8709;DHT22;4391;48.678;9.280;2023-07-31T09:00:32;23.20;99.90
8709;DHT22;4391;48.678;9.280;2023-07-31T09:03:02;23.70;99.90
8709;DHT22;4391;48.678;9.280;2023-07-31T09:05:30;24.20;99.90
8709;DHT22;4391;48.678;9.280;2023-07-31T09:08:02;24.40;99.90
8709;DHT22;4391;48.678;9.280;2023-07-31T09:10:30;24.50;99.90
8709;DHT22;4391;48.678;9.280;2023-07-31T09:12:58;24.70;99.90
8709;DHT22;4391;48.678;9.280;2023-07-31T09:15:25;24.80;99.90
8709;DHT22;4391;48.678;9.280;2023-07-31T09:17:59;24.50;99.90
8709;DHT22;4391;48.678;9.280;2023-07-31T09:20:26;24.40;99.90
8709;DHT22;4391;48.678;9.280;2023-07-31T09:22:53;24.50;99.90
8709;DHT22;4391;48.678;9.280;2023-07-31T09:25:24;24.70;99.90
8709;DHT22;4391;48.678;9.280;2023-07-31T09:27:53;24.70;99.90
8709;DHT22;4391;48.678;9.280;2023-07-31T09:30:20;24.10;99.90
8709;DHT22;4391;48.678;9.280;2023-07-31T09:32:48;23.80;99.90
8709;DHT22;4391;48.678;9.280;2023-07-31T09:35:20;23.50;99.90
8709;DHT22;4391;48.678;9.280;2023-07-31T09:37:51;23.50;99.90
8709;DHT22;4391;48.678;9.280;2023-07-31T09:40:33;23.70;99.90
8709;DHT22;4391;48.678;9.280;2023-07-31T09:43:01;23.90;99.90
8709;DHT22;4391;48.678;9.280;2023-07-31T09:45:28;24.20;99.90
8709;DHT22;4391;48.678;9.280;2023-07-31T09:47:56;24.50;99.90
8709;DHT22;4391;48.678;9.280;2023-07-31T09:50:24;24.80;99.90
8709;DHT22;4391;48.678;9.280;2023-07-31T09:52:51;25.10;99.90
8709;DHT22;4391;48.678;9.280;2023-07-31T09:55:19;25.30;99.90
8709;DHT22;4391;48.678;9.280;2023-07-31T09:57:48;25.20;99.90
8709;DHT22;4391;48.678;9.280;2023-07-31T10:00:16;25.00;99.90
8709;DHT22;4391;48.678;9.280;2023-07-31T10:02:45;24.60;99.90
8709;DHT22;4391;48.678;9.280;2023-07-31T10:05:13;24.60;99.90
8709;DHT22;4391;48.678;9.280;2023-07-31T10:07:42;24.80;99.90
8709;DHT22;4391;48.678;9.280;2023-07-31T10:10:10;24.70;99.90
8709;DHT22;4391;48.678;9.280;2023-07-31T10:12:38;24.30;99.90
8709;DHT22;4391;48.678;9.280;2023-07-31T10:15:08;24.10;99.90
8709;DHT22;4391;48.678;9.280;2023-07-31T10:17:36;23.80;99.90
8709;DHT22;4391;48.678;9.280;2023-07-31T10:20:04;23.80;99.90
8709;DHT22;4391;48.678;9.280;2023-07-31T10:22:34;24.50;99.90
8709;DHT22;4391;48.678;9.280;2023-07-31T10:25:01;25.50;99.90
8709;DHT22;4391;48.678;9.280;2023-07-31T10:27:28;26.10;99.90
8709;DHT22;4391;48.678;9.280;2023-07-31T10:29:57;26.60;99.90
8709;DHT22;4391;48.678;9.280;2023-07-31T10:32:26;27.20;99.90
8709;DHT22;4391;48.678;9.280;2023-07-31T10:34:54;27.40;99.90
8709;DHT22;4391;48.678;9.280;2023-07-31T10:37:27;27.60;99.90
8709;DHT22;4391;48.678;9.280;2023-07-31T10:39:59;27.90;99.90
8709;DHT22;4391;48.678;9.280;2023-07-31T10:42:30;27.90;99.90
8709;DHT22;4391;48.678;9.280;2023-07-31T10:44:59;27.20;99.90
8709;DHT22;4391;48.678;9.280;2023-07-31T10:47:27;27.60;99.90
8709;DHT22;4391;48.678;9.280;2023-07-31T10:50:12;27.10;99.90
8709;DHT22;4391;48.678;9.280;2023-07-31T10:52:39;27.60;99.90
8709;DHT22;4391;48.678;9.280;2023-07-31T10:55:22;28.30;99.90
8709;DHT22;4391;48.678;9.280;2023-07-31T10:57:49;29.00;99.90
8709;DHT22;4391;48.678;9.280;2023-07-31T11:00:21;28.90;99.90
8709;DHT22;4391;48.678;9.280;2023-07-31T11:03:16;29.00;99.90
8709;DHT22;4391;48.678;9.280;2023-07-31T11:05:46;27.60;99.90
8709;DHT22;4391;48.678;9.280;2023-07-31T11:08:13;27.40;99.90
8709;DHT22;4391;48.678;9.280;2023-07-31T11:10:41;27.80;99.90
8709;DHT22;4391;48.678;9.280;2023-07-31T11:13:08;28.60;99.90
8709;DHT22;4391;48.678;9.280;2023-07-31T11:15:35;28.90;99.90
8709;DHT22;4391;48.678;9.280;2023-07-31T11:18:02;28.10;99.90
8709;DHT22;4391;48.678;9.280;2023-07-31T11:20:33;27.50;99.90
8709;DHT22;4391;48.678;9.280;2023-07-31T11:23:01;26.50;99.90
8709;DHT22;4391;48.678;9.280;2023-07-31T11:25:29;25.70;99.90
8709;DHT22;4391;48.678;9.280;2023-07-31T11:27:57;25.40;99.90
8709;DHT22;4391;48.678;9.280;2023-07-31T11:30:23;24.90;99.90
8709;DHT22;4391;48.678;9.280;2023-07-31T11:32:50;24.40;99.90
8709;DHT22;4391;48.678;9.280;2023-07-31T11:35:17;24.40;99.90
8709;DHT22;4391;48.678;9.280;2023-07-31T11:37:46;24.50;99.90
8709;DHT22;4391;48.678;9.280;2023-07-31T11:40:12;24.40;99.90
8709;DHT22;4391;48.678;9.280;2023-07-31T11:42:40;24.40;99.90
8709;DHT22;4391;48.678;9.280;2023-07-31T11:45:09;24.30;99.90
8709;DHT22;4391;48.678;9.280;2023-07-31T11:47:37;24.30;99.90
8709;DHT22;4391;48.678;9.280;2023-07-31T11:50:18;24.20;99.90
8709;DHT22;4391;48.678;9.280;2023-07-31T11:53:12;23.90;99.90
8709;DHT22;4391;48.678;9.280;2023-07-31T11:56:20;23.50;99.90
8709;DHT22;4391;48.678;9.280;2023-07-31T11:59:25;23.20;99.90
8709;DHT22;4391;48.678;9.280;2023-07-31T12:02:45;23.20;99.90
8709;DHT22;4391;48.678;9.280;2023-07-31T12:06:12;23.10;99.90
8709;DHT22;4391;48.678;9.280;2023-07-31T12:19:51;23.00;99.90
8709;DHT22;4391;48.678;9.280;2023-07-31T12:23:39;22.80;99.90
8709;DHT22;4391;48.678;9.280;2023-07-31T12:27:19;22.60;99.90
8709;DHT22;4391;48.678;9.280;2023-07-31T12:30:49;22.50;99.90
8709;DHT22;4391;48.678;9.280;2023-07-31T12:34:14;22.60;99.90
8709;DHT22;4391;48.678;9.280;2023-07-31T12:37:07;22.90;99.90
8709;DHT22;4391;48.678;9.280;2023-07-31T12:40:35;23.10;99.90
8709;DHT22;4391;48.678;9.280;2023-07-31T12:44:16;23.00;99.90
8709;DHT22;4391;48.678;9.280;2023-07-31T12:47:49;22.90;99.90
8709;DHT22;4391;48.678;9.280;2023-07-31T12:51:41;22.90;99.90
8709;DHT22;4391;48.678;9.280;2023-07-31T12:58:26;22.80;99.90
8709;DHT22;4391;48.678;9.280;2023-07-31T13:02:09;22.60;99.90
8709;DHT22;4391;48.678;9.280;2023-07-31T13:06:03;22.80;99.90
8709;DHT22;4391;48.678;9.280;2023-07-31T13:16:24;22.70;99.90
8709;DHT22;4391;48.678;9.280;2023-07-31T13:19:05;22.90;99.90
8709;DHT22;4391;48.678;9.280;2023-07-31T13:21:32;23.00;99.90
8709;DHT22;4391;48.678;9.280;2023-07-31T13:24:07;23.00;99.90
8709;DHT22;4391;48.678;9.280;2023-07-31T13:26:49;22.80;99.90
8709;DHT22;4391;48.678;9.280;2023-07-31T13:29:20;23.00;99.90
8709;DHT22;4391;48.678;9.280;2023-07-31T13:32:00;23.20;99.90
8709;DHT22;4391;48.678;9.280;2023-07-31T13:35:05;23.30;99.90
8709;DHT22;4391;48.678;9.280;2023-07-31T13:37:49;23.30;99.90
8709;DHT22;4391;48.678;9.280;2023-07-31T13:40:35;23.20;99.90
8709;DHT22;4391;48.678;9.280;2023-07-31T13:43:12;23.20;99.90
8709;DHT22;4391;48.678;9.280;2023-07-31T13:45:56;23.20;99.90
8709;DHT22;4391;48.678;9.280;2023-07-31T14:10:21;23.20;99.90
8709;DHT22;4391;48.678;9.280;2023-07-31T14:13:14;23.50;99.90
8709;DHT22;4391;48.678;9.280;2023-07-31T14:16:26;23.70;99.90
8709;DHT22;4391;48.678;9.280;2023-07-31T14:19:42;23.90;99.90
8709;DHT22;4391;48.678;9.280;2023-07-31T14:22:33;23.90;99.90
8709;DHT22;4391;48.678;9.280;2023-07-31T14:25:40;23.70;99.90
8709;DHT22;4391;48.678;9.280;2023-07-31T14:28:25;23.50;99.90
8709;DHT22;4391;48.678;9.280;2023-07-31T14:31:11;23.30;99.90
8709;DHT22;4391;48.678;9.280;2023-07-31T14:33:50;23.20;99.90
8709;DHT22;4391;48.678;9.280;2023-07-31T14:36:55;23.30;99.90
8709;DHT22;4391;48.678;9.280;2023-07-31T14:39:36;23.40;99.90
8709;DHT22;4391;48.678;9.280;2023-07-31T14:42:37;23.40;99.90
8709;DHT22;4391;48.678;9.280;2023-07-31T14:45:43;23.30;99.90
8709;DHT22;4391;48.678;9.280;2023-07-31T14:48:52;23.30;99.90
8709;DHT22;4391;48.678;9.280;2023-07-31T14:51:30;23.20;99.90
8709;DHT22;4391;48.678;9.280;2023-07-31T14:55:07;23.10;99.90
8709;DHT22;4391;48.678;9.280;2023-07-31T15:08:32;23.30;99.90
8709;DHT22;4391;48.678;9.280;2023-07-31T15:11:15;23.20;99.90
8709;DHT22;4391;48.678;9.280;2023-07-31T15:14:13;23.10;99.90
8709;DHT22;4391;48.678;9.280;2023-07-31T15:16:48;23.10;99.90
8709;DHT22;4391;48.678;9.280;2023-07-31T15:19:41;23.00;99.90
8709;DHT22;4391;48.678;9.280;2023-07-31T15:22:41;23.10;99.90
8709;DHT22;4391;48.678;9.280;2023-07-31T15:26:08;23.00;99.90
8709;DHT22;4391;48.678;9.280;2023-07-31T15:29:25;23.00;99.90
8709;DHT22;4391;48.678;9.280;2023-07-31T15:32:24;23.00;99.90
8709;DHT22;4391;48.678;9.280;2023-07-31T15:35:30;23.20;99.90
8709;DHT22;4391;48.678;9.280;2023-07-31T15:38:28;23.40;99.90
8709;DHT22;4391;48.678;9.280;2023-07-31T15:45:22;23.50;99.90
8709;DHT22;4391;48.678;9.280;2023-07-31T15:48:20;23.60;99.90
8709;DHT22;4391;48.678;9.280;2023-07-31T15:51:22;23.60;99.90
8709;DHT22;4391;48.678;9.280;2023-07-31T15:55:21;23.50;99.90
8709;DHT22;4391;48.678;9.280;2023-07-31T15:58:25;23.60;99.90
8709;DHT22;4391;48.678;9.280;2023-07-31T16:01:37;23.70;99.90
8709;DHT22;4391;48.678;9.280;2023-07-31T16:05:11;23.70;99.90
8709;DHT22;4391;48.678;9.280;2023-07-31T16:08:48;23.70;99.90
8709;DHT22;4391;48.678;9.280;2023-07-31T16:11:28;24.00;99.90
8709;DHT22;4391;48.678;9.280;2023-07-31T16:14:38;24.10;99.90
8709;DHT22;4391;48.678;9.280;2023-07-31T16:35:19;23.80;99.90
8709;DHT22;4391;48.678;9.280;2023-07-31T16:38:28;23.90;99.90
8709;DHT22;4391;48.678;9.280;2023-07-31T16:41:11;23.80;99.90
8709;DHT22;4391;48.678;9.280;2023-07-31T16:44:19;23.60;99.90
8709;DHT22;4391;48.678;9.280;2023-07-31T16:47:06;23.50;99.90
8709;DHT22;4391;48.678;9.280;2023-07-31T16:50:15;23.50;99.90
8709;DHT22;4391;48.678;9.280;2023-07-31T16:52:47;23.40;99.90
8709;DHT22;4391;48.678;9.280;2023-07-31T16:55:19;23.40;99.90
8709;DHT22;4391;48.678;9.280;2023-07-31T16:57:53;23.40;99.90
8709;DHT22;4391;48.678;9.280;2023-07-31T17:00:54;23.40;99.90
8709;DHT22;4391;48.678;9.280;2023-07-31T17:04:57;23.20;99.90
8709;DHT22;4391;48.678;9.280;2023-07-31T17:07:57;22.90;99.90
8709;DHT22;4391;48.678;9.280;2023-07-31T17:10:54;22.80;99.90
8709;DHT22;4391;48.678;9.280;2023-07-31T17:13:38;22.70;99.90
8709;DHT22;4391;48.678;9.280;2023-07-31T17:16:24;22.50;99.90
8709;DHT22;4391;48.678;9.280;2023-07-31T17:20:30;22.30;99.90
8709;DHT22;4391;48.678;9.280;2023-07-31T18:15:13;21.40;99.90
8709;DHT22;4391;48.678;9.280;2023-07-31T18:18:29;21.20;99.90
8709;DHT22;4391;48.678;9.280;2023-07-31T18:21:42;21.10;99.90
8709;DHT22;4391;48.678;9.280;2023-07-31T18:24:51;21.10;99.90
8709;DHT22;4391;48.678;9.280;2023-07-31T18:28:25;21.10;99.90
8709;DHT22;4391;48.678;9.280;2023-07-31T18:38:22;20.90;99.90
8709;DHT22;4391;48.678;9.280;2023-07-31T18:40:49;20.90;99.90
8709;DHT22;4391;48.678;9.280;2023-07-31T18:43:16;20.80;99.90
8709;DHT22;4391;48.678;9.280;2023-07-31T18:46:12;20.80;99.90
8709;DHT22;4391;48.678;9.280;2023-07-31T18:48:43;20.70;99.90
8709;DHT22;4391;48.678;9.280;2023-07-31T18:51:18;20.60;1.00
8709;DHT22;4391;48.678;9.280;2023-07-31T18:53:57;20.30;1.00
8709;DHT22;4391;48.678;9.280;2023-07-31T18:56:26;19.90;99.90
8709;DHT22;4391;48.678;9.280;2023-07-31T18:58:59;19.60;99.90
8709;DHT22;4391;48.678;9.280;2023-07-31T19:01:44;19.30;1.00
8709;DHT22;4391;48.678;9.280;2023-07-31T19:04:29;19.10;1.00
8709;DHT22;4391;48.678;9.280;2023-07-31T19:07:52;18.90;1.00
8709;DHT22;4391;48.678;9.280;2023-07-31T19:14:19;18.40;1.00
8709;DHT22;4391;48.678;9.280;2023-07-31T19:16:46;18.30;1.00
8709;DHT22;4391;48.678;9.280;2023-07-31T19:19:13;18.30;1.00
8709;DHT22;4391;48.678;9.280;2023-07-31T19:21:40;18.20;1.00
8709;DHT22;4391;48.678;9.280;2023-07-31T19:24:08;18.10;1.00
8709;DHT22;4391;48.678;9.280;2023-07-31T19:26:36;18.10;1.00
8709;DHT22;4391;48.678;9.280;2023-07-31T19:29:07;18.00;5.90